Ebeltoft, Denmark
Current Conditions -  °F | °C
As of 11:50 PM on Tuesday 25 Nov 2014 (Local Time) from EKAH Reporting Station
Moderate Fog Moderate Fog  
Wind Chill: 39°   Ceiling: 2300
Heat Index: 39°   Visibility: 0.34mi
Dew Point: 36°   Wind: 0mph
Humidity: 87%   Direction: NA
Pressure: 30.33"   Gusts: NA
Location:  56.19°N, 10.68°E
Report Text: EKAH 252250Z AUTO 00000KT 0550NDV R10R/P1500VP1500U R28L/P1500NFG BKN023/// 04/02 Q1027
Loading
Personal Weather Stations






























Interactive Weather Map New forecast layout! Learn more

10-Day Weather Forecast

Advertisements
Track Severe Weather on mobile